Terminal Aerodrome Forecast
Issued by NWS Melbourne, FL

Home | Current Version | Previous Version | Text Only | Print | Product List | Glossary On
Versions: 1 2 3 4 5 6 7 8 9 10 11 12 13
000
FTUS42 KMLB 201120
TAFMLB
TAF
KMLB 201120Z 2012/2112 11010KT P6SM FEW025 FEW045
     FM201500 12012KT P6SM FEW020 SCT035
     FM202000 11012KT P6SM SCT035 BKN045
     FM210600 10008KT P6SM FEW025 SCT050=

USA.gov is the U.S. government's official web portal to all federal, state and local government web resources and services.